Meteo Giornale » Osservazioni meteo Russia » Pskov
ore: 20:00 - Osservazioni Meteo Pskov
Lat. 57° 47' N Lon. 28° 24' E Alt. 47 metri s.l.m.
19 °C
Poco Nuvoloso
Temp. 24 Ore
14 °C
25 °C
Nord
7.2 Km/h
Dew point 17 °C
Umidità 88 %
Visibilità 10 Km
Il sole sorge alle ore 06:04
Il sole tramonta alle ore 20:08
| Data e Ora | Cielo e Fenomeni | T °C | DP °C | Um. % | Pres. hPa | Vis. km | Vento km/h | |
|---|---|---|---|---|---|---|---|---|
| Oggi h: 20:00 | Poco Nuvoloso | 19 | 17 | 88 | 1010 | 10 | N 7.2 | |
| Oggi h: 19:30 | Poco Nuvoloso | 20 | 16 | 77 | 1010 | 10 | S/SO 10.8 | |
| Oggi h: 19:00 | Poco Nuvoloso | 22 | 17 | 73 | 1010 | 10 | S/SO 10.8 | |
| Oggi h: 18:30 | Poco Nuvoloso | 22 | 17 | 73 | 1010 | 10 | S/SO 14.4 | |
| Oggi h: 18:00 | Nuvoloso | 23 | 17 | 68 | 1010 | 10 | S/SO 14.4 | |
| Oggi h: 17:30 | Nuvoloso | 22 | 17 | 73 | 1010 | 10 | N 7.2 | |
| Oggi h: 17:00 | Molto Nuvoloso | 22 | 18 | 78 | 1010 | 10 | N 7.2 | |
| Oggi h: 16:30 | Molto Nuvoloso | 23 | 17 | 68 | 1010 | 10 | S/SO 18 | |
| Oggi h: 16:00 | Nuvoloso | 25 | 17 | 61 | 1010 | 10 | S/SO 25.2 | |
| Oggi h: 15:30 | Molto Nuvoloso | 24 | 18 | 69 | 1010 | 10 | S/SO 18 | |
| Oggi h: 15:15 | Molto Nuvoloso | 25 | 18 | 65 | 1010 | 10 | S/SO 18 | |
| Oggi h: 15:00 | Molto Nuvoloso | 23 | 18 | 73 | 1010 | 10 | S/SO 10.8 | |
| Oggi h: 14:30 | Pioggia | 23 | 17 | 68 | 1010 | 10 | S 21.6 | |
| Oggi h: 14:00 | Nuvoloso | 23 | 17 | 68 | 1011 | 10 | S 18 | |
| Oggi h: 13:30 | Poco Nuvoloso | 23 | 17 | 68 | 1011 | 10 | S 25.2 | |
| Oggi h: 13:00 | Poco Nuvoloso | 23 | 17 | 68 | 1011 | 10 | S 21.6 | |
| Oggi h: 12:30 | Poco Nuvoloso | 22 | 17 | 73 | 1011 | 10 | S 21.6 | |
| Oggi h: 12:00 | Poco Nuvoloso | 21 | 17 | 77 | 1011 | 10 | S 21.6 | |
| Oggi h: 11:30 | Poco Nuvoloso | 21 | 17 | 77 | 1011 | 10 | S 21.6 | |
| Oggi h: 11:00 | Poco Nuvoloso | 20 | 17 | 82 | 1011 | 10 | S 18 | |
| Oggi h: 10:45 | Poco Nuvoloso | 20 | 17 | 82 | 1011 | 10 | S 14.4 | |
| Oggi h: 10:30 | Nuvoloso | 18 | 17 | 93 | 1011 | 10 | S 14.4 | |
| Oggi h: 10:00 | Nuvoloso | 17 | 16 | 93 | 1011 | 10 | S/SE 14.4 | |
| Oggi h: 09:30 | Pioggia | 17 | 16 | 93 | 1011 | 10 | S 14.4 | |
| Oggi h: 09:00 | Nuvoloso | 17 | 16 | 93 | 1011 | 10 | S 14.4 | |
| Oggi h: 08:30 | Nuvoloso | 16 | 15 | 93 | 1011 | 10 | S/SE 14.4 | |
| Oggi h: 08:00 | Pioggia | 16 | 15 | 93 | 1011 | 10 | S/SE 10.8 | |
| Oggi h: 07:30 | Sereno | 16 | 16 | 100 | 1011 | 10 | S/SE 14.4 | |
| Oggi h: 07:00 | Sereno | 15 | 15 | 100 | 1012 | 10 | S/SE 10.8 | |
| Oggi h: 06:30 | Sereno | 15 | 15 | 100 | 1012 | 10 | S 10.8 | |
| Oggi h: 06:00 | Sereno | 16 | 15 | 93 | 1012 | 10 | S/SE 10.8 | |
| Oggi h: 05:30 | Sereno | 16 | 15 | 93 | 1012 | 10 | S 10.8 | |
| Oggi h: 05:00 | Sereno | 16 | 16 | 100 | 1012 | 10 | S 10.8 | |
| Oggi h: 04:00 | Sereno | 16 | 16 | 100 | 1013 | 10 | S 10.8 | |
| Oggi h: 03:00 | Sereno | 15 | 15 | 100 | 1013 | 10 | S 10.8 | |
| Oggi h: 02:00 | Sereno | 15 | 15 | 100 | 1013 | 10 | S 14.4 | |
| Oggi h: 01:30 | Sereno | 15 | 15 | 100 | 1013 | 10 | S 10.8 | |
| Oggi h: 01:00 | Sereno | 15 | 15 | 100 | 1013 | 10 | S 10.8 | |
| Oggi h: 00:30 | Sereno | 14 | 14 | 100 | 1013 | 9 | N 7.2 | |
| Oggi h: 00:00 | Foschia | 14 | 14 | 100 | 1013 | 4 | N 7.2 | |
| Ieri h: 23:30 | Nebbia a tratti Foschia | 14 | 14 | 100 | 1013 | 0.5 | N 3.6 | |
| Ieri h: 23:29 | Nebbia a tratti Foschia | 14 | 14 | 100 | 1013 | 0.55 | N 3.6 | |
| Ieri h: 23:01 | Nebbia a tratti | 14 | 14 | 100 | 1013 | 0.3 | N 7.2 | |
| Ieri h: 23:00 | Nebbia a tratti | 14 | 14 | 100 | 1013 | 0.3 | N 7.2 | |
| Ieri h: 22:30 | Sereno | 14 | 14 | 100 | 1013 | 6 | N 7.2 | |
| Ieri h: 22:00 | Sereno | 14 | 14 | 100 | 1013 | 9 | N 7.2 | |
| Ieri h: 21:30 | Sereno | 15 | 15 | 100 | 1013 | 10 | N 7.2 | |
| Ieri h: 21:00 | Poco Nuvoloso | 15 | 15 | 100 | 1013 | 10 | N 7.2 | |



